Time,TemperatureF,DewpointF,PressureIn,WindDirection,WindDirectionDegrees,WindSpeedMPH,WindSpeedGustMPH,Humidity,HourlyPrecipIn,Conditions,Clouds,dailyrainin,SolarRadiationWatts/m^2,SoftwareType,DateUTC
2013-05-08 00:00:00,56.0,42.0,-100.00,NNW,337,2.0,-999.0,58,-99.99,,,-99.99,0.000000,,2013-05-08 04:00:00,
2013-05-08 00:43:00,56.0,42.0,-100.00,NNW,337,2.0,-999.0,58,-99.99,,,-99.99,0.000000,,2013-05-08 04:43:00,
2013-05-08 00:53:00,56.0,42.0,-100.00,NNW,337,2.0,-999.0,58,-99.99,,,-99.99,0.000000,,2013-05-08 04:53:00,
2013-05-08 01:00:00,58.0,42.0,-100.00,ENE,67,3.0,-999.0,56,-99.99,,,-99.99,0.000000,,2013-05-08 05:00:00,
2013-05-08 01:42:00,58.0,42.0,-100.00,ENE,67,3.0,-999.0,56,-99.99,,,-99.99,0.000000,,2013-05-08 05:42:00,
2013-05-08 01:52:00,58.0,42.0,-100.00,ENE,67,3.0,-999.0,56,-99.99,,,-99.99,0.000000,,2013-05-08 05:52:00,
2013-05-08 02:00:00,59.0,42.0,-100.00,East,90,2.0,-999.0,53,-99.99,,,-99.99,0.000000,,2013-05-08 06:00:00,
2013-05-08 02:42:00,59.0,42.0,-100.00,East,90,2.0,-999.0,53,-99.99,,,-99.99,0.000000,,2013-05-08 06:42:00,
2013-05-08 02:52:00,59.0,42.0,-100.00,East,90,2.0,-999.0,53,-99.99,,,-99.99,0.000000,,2013-05-08 06:52:00,
2013-05-08 03:00:00,58.0,42.0,-100.00,SE,135,3.0,-999.0,54,-99.99,,,-99.99,0.000000,,2013-05-08 07:00:00,
2013-05-08 03:42:00,58.0,42.0,-100.00,SE,135,3.0,-999.0,54,-99.99,,,-99.99,0.000000,,2013-05-08 07:42:00,
2013-05-08 03:52:00,58.0,42.0,-100.00,SE,135,3.0,-999.0,54,-99.99,,,-99.99,0.000000,,2013-05-08 07:52:00,
2013-05-08 04:00:00,56.0,43.0,-100.00,SE,135,3.0,-999.0,60,-99.99,,,-99.99,0.000000,,2013-05-08 08:00:00,
2013-05-08 04:43:00,56.0,43.0,-100.00,SE,135,3.0,-999.0,60,-99.99,,,-99.99,0.000000,,2013-05-08 08:43:00,
2013-05-08 04:52:00,56.0,43.0,-100.00,SE,135,3.0,-999.0,60,-99.99,,,-99.99,0.000000,,2013-05-08 08:52:00,
2013-05-08 05:00:00,56.0,45.0,-100.00,SSE,157,3.0,-999.0,66,-99.99,,,-99.99,0.000000,,2013-05-08 09:00:00,
2013-05-08 05:42:00,56.0,45.0,-100.00,SSE,157,3.0,-999.0,66,-99.99,,,-99.99,0.000000,,2013-05-08 09:42:00,
2013-05-08 05:53:00,56.0,45.0,-100.00,SSE,157,3.0,-999.0,66,-99.99,,,-99.99,0.000000,,2013-05-08 09:53:00,
2013-05-08 06:00:00,56.0,46.0,-100.00,SE,135,3.0,-999.0,70,-99.99,,,-99.99,0.000000,,2013-05-08 10:00:00,
2013-05-08 06:42:00,56.0,46.0,-100.00,SE,135,3.0,-999.0,70,-99.99,,,-99.99,0.000000,,2013-05-08 10:42:00,
2013-05-08 06:52:00,56.0,46.0,-100.00,SE,135,3.0,-999.0,70,-99.99,,,-99.99,0.000000,,2013-05-08 10:52:00,
2013-05-08 09:00:00,63.0,51.0,-100.00,SW,225,1.0,-999.0,65,-99.99,,,-99.99,291.160004,,2013-05-08 13:00:00,
2013-05-08 09:42:00,63.0,51.0,-100.00,SW,225,1.0,-999.0,65,-99.99,,,-99.99,291.160004,,2013-05-08 13:42:00,
2013-05-08 09:52:00,63.0,51.0,-100.00,SW,225,1.0,-999.0,65,-99.99,,,-99.99,291.160004,,2013-05-08 13:52:00,
2013-05-08 10:00:00,68.0,51.0,-100.00,SW,225,1.0,-999.0,55,-99.99,,,-99.99,466.320007,,2013-05-08 14:00:00,
2013-05-08 10:42:00,68.0,51.0,-100.00,SW,225,1.0,-999.0,55,-99.99,,,-99.99,466.320007,,2013-05-08 14:42:00,
2013-05-08 10:52:00,68.0,51.0,-100.00,SW,225,1.0,-999.0,55,-99.99,,,-99.99,466.320007,,2013-05-08 14:52:00,
2013-05-08 11:00:00,71.0,53.0,-100.00,WNW,292,2.0,-999.0,52,-99.99,,,-99.99,617.119995,,2013-05-08 15:00:00,
2013-05-08 11:42:00,71.0,53.0,-100.00,WNW,292,2.0,-999.0,52,-99.99,,,-99.99,617.119995,,2013-05-08 15:42:00,
2013-05-08 11:53:00,71.0,53.0,-100.00,WNW,292,2.0,-999.0,52,-99.99,,,-99.99,617.119995,,2013-05-08 15:53:00,
2013-05-08 12:00:00,72.0,52.0,-100.00,WSW,247,2.0,-999.0,48,-99.99,,,-99.99,679.760010,,2013-05-08 16:00:00,
2013-05-08 12:42:00,72.0,52.0,-100.00,WSW,247,2.0,-999.0,48,-99.99,,,-99.99,679.760010,,2013-05-08 16:42:00,
2013-05-08 12:52:00,72.0,52.0,-100.00,WSW,247,2.0,-999.0,48,-99.99,,,-99.99,679.760010,,2013-05-08 16:52:00,
2013-05-08 13:00:00,75.0,52.0,-100.00,West,270,4.0,-999.0,45,-99.99,,,-99.99,812.000000,,2013-05-08 17:00:00,
2013-05-08 13:52:00,75.0,52.0,-100.00,West,270,4.0,-999.0,45,-99.99,,,-99.99,812.000000,,2013-05-08 17:52:00,
2013-05-08 14:00:00,75.0,52.0,-100.00,WNW,292,6.0,-999.0,45,-99.99,,,-99.99,865.359985,,2013-05-08 18:00:00,
2013-05-08 14:42:00,75.0,52.0,-100.00,WNW,292,6.0,-999.0,45,-99.99,,,-99.99,865.359985,,2013-05-08 18:42:00,
2013-05-08 14:52:00,75.0,52.0,-100.00,WNW,292,6.0,-999.0,45,-99.99,,,-99.99,865.359985,,2013-05-08 18:52:00,
2013-05-08 15:00:00,75.0,51.0,-100.00,WNW,292,8.0,-999.0,42,-99.99,,,-99.99,831.719971,,2013-05-08 19:00:00,
2013-05-08 15:42:00,75.0,51.0,-100.00,WNW,292,8.0,-999.0,42,-99.99,,,-99.99,831.719971,,2013-05-08 19:42:00,
2013-05-08 15:52:00,75.0,51.0,-100.00,WNW,292,8.0,-999.0,42,-99.99,,,-99.99,831.719971,,2013-05-08 19:52:00,
2013-05-08 16:00:00,76.0,50.0,-100.00,WNW,292,7.0,-999.0,40,-99.99,,,-99.99,778.359985,,2013-05-08 20:00:00,
2013-05-08 16:42:00,76.0,50.0,-100.00,WNW,292,7.0,-999.0,40,-99.99,,,-99.99,778.359985,,2013-05-08 20:42:00,
2013-05-08 16:52:00,76.0,50.0,-100.00,WNW,292,7.0,-999.0,40,-99.99,,,-99.99,778.359985,,2013-05-08 20:52:00,
2013-05-08 17:00:00,77.0,48.0,-100.00,NW,315,7.0,-999.0,36,-99.99,,,-99.99,669.320007,,2013-05-08 21:00:00,
2013-05-08 17:43:00,77.0,48.0,-100.00,NW,315,7.0,-999.0,36,-99.99,,,-99.99,669.320007,,2013-05-08 21:43:00,
2013-05-08 17:53:00,77.0,48.0,-100.00,NW,315,7.0,-999.0,36,-99.99,,,-99.99,669.320007,,2013-05-08 21:53:00,
2013-05-08 18:00:00,75.0,45.0,-100.00,NW,315,7.0,-999.0,33,-99.99,,,-99.99,522.000000,,2013-05-08 22:00:00,
2013-05-08 18:42:00,75.0,45.0,-100.00,NW,315,7.0,-999.0,33,-99.99,,,-99.99,522.000000,,2013-05-08 22:42:00,
2013-05-08 18:53:00,75.0,45.0,-100.00,NW,315,7.0,-999.0,33,-99.99,,,-99.99,522.000000,,2013-05-08 22:53:00,
2013-05-08 19:00:00,74.0,42.0,-100.00,NW,315,7.0,-999.0,31,-99.99,,,-99.99,352.640015,,2013-05-08 23:00:00,
2013-05-08 19:42:00,74.0,42.0,-100.00,NW,315,7.0,-999.0,31,-99.99,,,-99.99,352.640015,,2013-05-08 23:42:00,
2013-05-08 19:52:00,74.0,42.0,-100.00,NW,315,7.0,-999.0,31,-99.99,,,-99.99,352.640015,,2013-05-08 23:52:00,
2013-05-08 21:00:00,64.0,43.0,-100.00,NW,315,3.0,-999.0,45,-99.99,,,-99.99,27.840000,,2013-05-09 01:00:00,
2013-05-08 21:42:00,64.0,43.0,-100.00,NW,315,3.0,-999.0,45,-99.99,,,-99.99,27.840000,,2013-05-09 01:42:00,
2013-05-08 21:52:00,64.0,43.0,-100.00,NW,315,3.0,-999.0,45,-99.99,,,-99.99,27.840000,,2013-05-09 01:52:00,
2013-05-08 22:00:00,61.0,41.0,-100.00,West,270,1.0,-999.0,47,-99.99,,,-99.99,0.000000,,2013-05-09 02:00:00,
2013-05-08 23:00:00,62.0,40.0,-100.00,East,90,1.0,-999.0,44,-99.99,,,-99.99,0.000000,,2013-05-09 03:00:00,
2013-05-08 23:43:00,62.0,40.0,-100.00,East,90,1.0,-999.0,44,-99.99,,,-99.99,0.000000,,2013-05-09 03:43:00,
2013-05-08 23:53:00,62.0,40.0,-100.00,East,90,1.0,-999.0,44,-99.99,,,-99.99,0.000000,,2013-05-09 03:53:00,